Links Sitemap Venhuizerweer voor mobiel

AMSTERDAM SCHIPHOL:
Amsterdam Airport Schiphol, Netherlands (EHAM) 52-18N 004-46E -2M
Sep 21, 2019 - 04:55 AM EDT / 2019.09.21 0855 UTC
Wind: from the ESE (110 degrees) at 12 MPH (10 KT) (direction variable):0
Visibility: greater than 7 mile(s):0
Temperature: 60 F (16 C)
Dew Point: 44 F (7 C)
Relative Humidity: 55%
Pressure (altimeter): 30.09 in. Hg (1019 hPa)
ob: EHAM 210855Z 11010KT 080V150 CAVOK 16/07 Q1019 NOSIG
cycle: 9
DEELEN:
Deelen, Netherlands (EHDL) 52-04N 005-53E 52M
Sep 21, 2019 - 04:55 AM EDT / 2019.09.21 0855 UTC
Wind: from the SE (130 degrees) at 12 MPH (10 KT) (direction variable):0
Visibility: greater than 7 mile(s):0
Temperature: 62 F (17 C)
Dew Point: 41 F (5 C)
Relative Humidity: 45%
Pressure (altimeter): 30.12 in. Hg (1020 hPa)
ob: EHDL 210855Z AUTO 13010KT 040V210 9999 NCD 17/05 Q1020 BLU
cycle: 9
DE KOOY:
De Kooy, Netherlands (EHKD) 52-55N 004-47E 14M
Sep 21, 2019 - 04:55 AM EDT / 2019.09.21 0855 UTC
Wind: from the E (100 degrees) at 9 MPH (8 KT) (direction variable):0
Visibility: greater than 7 mile(s):0
Temperature: 60 F (16 C)
Dew Point: 50 F (10 C)
Relative Humidity: 67%
Pressure (altimeter): 30.12 in. Hg (1020 hPa)
ob: EHKD 210855Z AUTO 10008KT 060V140 9999 NCD 16/10 Q1020 BLU 09007KT CAVOK
cycle: 9
EELDE:
Groningen Airport Eelde, Netherlands (EHGG) 53-08N 006-35E 4M
Sep 21, 2019 - 04:55 AM EDT / 2019.09.21 0855 UTC
Wind: from the ESE (120 degrees) at 6 MPH (5 KT) (direction variable):0
Visibility: greater than 7 mile(s):0
Temperature: 60 F (16 C)
Dew Point: 48 F (9 C)
Relative Humidity: 63%
Pressure (altimeter): 30.18 in. Hg (1022 hPa)
ob: EHGG 210855Z AUTO 12005KT 080V170 9999 NCD 16/09 Q1022 NOSIG
cycle: 9
EINDHOVEN:
Eindhoven, Netherlands (EHEH) 51-27N 005-25E 28M
Sep 21, 2019 - 04:55 AM EDT / 2019.09.21 0855 UTC
Wind: Variable at 9 MPH (8 KT):0
Visibility: greater than 7 mile(s):0
Temperature: 62 F (17 C)
Dew Point: 39 F (4 C)
Relative Humidity: 41%
Pressure (altimeter): 30.09 in. Hg (1019 hPa)
ob: EHEH 210855Z AUTO VRB08KT 9999 NCD 17/04 Q1019 BLU 11010KT CAVOK
cycle: 9
GILZE-RIJEN:
Gilze-Rijen, Netherlands (EHGR) 51-34N 004-56E 24M
Sep 21, 2019 - 04:55 AM EDT / 2019.09.21 0855 UTC
Wind: from the E (100 degrees) at 9 MPH (8 KT) (direction variable):0
Visibility: greater than 7 mile(s):0
Temperature: 62 F (17 C)
Dew Point: 41 F (5 C)
Relative Humidity: 45%
Pressure (altimeter): 30.06 in. Hg (1018 hPa)
ob: EHGR 210855Z AUTO 10008KT 070V140 9999 NCD 17/05 Q1018 BLU 11010KT CAVOK
cycle: 9
LEEUWARDEN:
Leeuwarden, Netherlands (EHLW) 53-13N 005-46E 11M
Sep 21, 2019 - 04:55 AM EDT / 2019.09.21 0855 UTC
Wind: from the E (100 degrees) at 7 MPH (6 KT) (direction variable):0
Visibility: greater than 7 mile(s):0
Temperature: 60 F (16 C)
Dew Point: 48 F (9 C)
Relative Humidity: 63%
Pressure (altimeter): 30.15 in. Hg (1021 hPa)
ob: EHLW 210855Z AUTO 10006KT 010V170 9999 NCD 16/09 Q1021 BLU
cycle: 9
MAASTRICHT:
Maastricht Airport Zuid Limburg, Netherlands (EHBK) 50-55N 005-47E 116M
Sep 21, 2019 - 04:55 AM EDT / 2019.09.21 0855 UTC
Wind: from the E (100 degrees) at 10 MPH (9 KT):0
Visibility: greater than 7 mile(s):0
Temperature: 64 F (18 C)
Dew Point: 39 F (4 C)
Relative Humidity: 39%
Pressure (altimeter): 30.09 in. Hg (1019 hPa)
ob: EHBK 210855Z AUTO 10009KT 9999 NCD 18/04 Q1019 NOSIG
cycle: 9
ROTTERDAM ZESTIENHOVEN:
Rotterdam Airport Zestienhoven, Netherlands (EHRD) 51-57N 004-27E -4M
Sep 21, 2019 - 04:55 AM EDT / 2019.09.21 0855 UTC
Wind: from the ESE (110 degrees) at 13 MPH (11 KT) (direction variable):0
Visibility: greater than 7 mile(s):0
Temperature: 60 F (16 C)
Dew Point: 42 F (6 C)
Relative Humidity: 51%
Pressure (altimeter): 30.06 in. Hg (1018 hPa)
ob: EHRD 210855Z AUTO 11011KT 080V140 9999 NCD 16/06 Q1018 NOSIG
cycle: 9
SOESTERBERG:
Soesterberg, Netherlands (EHSB) 52-08N 005-17E 25M
Nov 20, 2008 - 04:25 AM EST / 2008.11.20 0925 UTC
Wind: from the W (280 degrees) at 16 MPH (14 KT):0
Visibility: greater than 7 mile(s):0
Temperature: 51 F (11 C)
Dew Point: 48 F (9 C)
Relative Humidity: 87%
Pressure (altimeter): 29.83 in. Hg (1010 hPa)
ob: EHSB 200925Z AUTO 28014KT 9999 // 11/09 Q1010
cycle: 9
TWENTE:
Twenthe, Netherlands (EHTW) 52-16N 006-54E 57M
Apr 07, 2008 - 08:25 AM EDT / 2008.04.07 1225 UTC
Wind: from the N (010 degrees) at 7 MPH (6 KT):0
Sky conditions: mostly cloudy
Temperature: 46 F (8 C)
Dew Point: 24 F (-4 C)
Relative Humidity: 42%
Pressure (altimeter): 29.59 in. Hg (1002 hPa)
ob: EHTW 071225Z AUTO 01006KT //// // BKN200/// 08/M04 Q1002 RE//
cycle: 12
VALKENBURG:
Valkenburg, Netherlands (EHVB) 52-11N 004-25E 2M
Apr 01, 2010 - 03:55 AM EDT / 2010.04.01 0755 UTC
Wind: from the WSW (250 degrees) at 20 MPH (17 KT):0
Sky conditions: mostly cloudy
Temperature: 41 F (5 C)
Dew Point: 33 F (1 C)
Relative Humidity: 75%
Pressure (altimeter): 29.62 in. Hg (1003 hPa)
ob: EHVB 010755Z AUTO 25017KT 9999NDV FEW021/// BKN037/// 05/01 Q1003 BLU
cycle: 8
VLIELAND:
Vlieland, Netherlands (EHVL) 53-15N 004-55E 12M
Sep 21, 2019 - 04:55 AM EDT / 2019.09.21 0855 UTC
Wind: from the ESE (120 degrees) at 15 MPH (13 KT):0
Visibility: greater than 7 mile(s):0
Temperature: 59 F (15 C)
Dew Point: 50 F (10 C)
Relative Humidity: 72%
Pressure (altimeter): 30.12 in. Hg (1020 hPa)
ob: EHVL 210855Z AUTO 12013KT 9999 NCD 15/10 Q1020 BLU
cycle: 9
VOLKEL:
Volkel, Netherlands (EHVK) 51-39N 005-42E 21M
Sep 21, 2019 - 04:55 AM EDT / 2019.09.21 0855 UTC
Wind: from the ESE (110 degrees) at 12 MPH (10 KT) (direction variable):0
Visibility: greater than 7 mile(s):0
Temperature: 62 F (17 C)
Dew Point: 39 F (4 C)
Relative Humidity: 41%
Pressure (altimeter): 30.09 in. Hg (1019 hPa)
ob: EHVK 210855Z AUTO 11010KT 070V160 9999 NCD 17/04 Q1019 BLU
cycle: 9
WOENSDRECHT:
Woensdrecht, Netherlands (EHWO) 51-27N 004-20E 17M
Sep 21, 2019 - 04:55 AM EDT / 2019.09.21 0855 UTC
Wind: from the E (090 degrees) at 9 MPH (8 KT) (direction variable):0
Visibility: greater than 7 mile(s):0
Temperature: 60 F (16 C)
Dew Point: 41 F (5 C)
Relative Humidity: 47%
Pressure (altimeter): 30.06 in. Hg (1018 hPa)
ob: EHWO 210855Z AUTO 09008KT 050V140 9999 NCD 16/05 Q1018 BLU
cycle: 9
Copyright © 2005 - 2019 Venhuizerweer - Alle Rechten Voorbehouden


35.173.47.43